createdAt,value
2022-08-11T00:00:12.850Z,63.86
2022-08-11T00:02:54.915Z,64.13
2022-08-11T00:05:41.878Z,63.81
2022-08-11T00:08:38.975Z,63.67
2022-08-11T00:11:19.853Z,63.77
2022-08-11T00:14:14.895Z,63.90
2022-08-11T00:17:07.853Z,63.91
2022-08-11T00:20:11.733Z,64.28
2022-08-11T00:22:58.818Z,63.97
2022-08-11T00:25:51.835Z,64.27
2022-08-11T00:28:34.960Z,64.19
2022-08-11T00:31:24.775Z,64.36
2022-08-11T00:34:11.495Z,64.35
2022-08-11T00:37:31.899Z,64.50
2022-08-11T00:40:23.429Z,64.33
2022-08-11T00:43:30.817Z,64.62
2022-08-11T00:46:41.842Z,64.68
2022-08-11T00:49:39.814Z,64.63
2022-08-11T00:52:30.679Z,64.57
2022-08-11T00:56:14.791Z,64.54
2022-08-11T00:59:35.263Z,65.17
2022-08-11T01:02:35.750Z,65.04
2022-08-11T01:06:00.877Z,64.81
2022-08-11T01:09:01.922Z,65.13
2022-08-11T01:12:08.760Z,64.57
2022-08-11T01:15:07.753Z,64.52
2022-08-11T01:18:16.785Z,64.80
2022-08-11T01:21:02.907Z,64.70
2022-08-11T01:23:49.775Z,65.17
2022-08-11T01:26:57.043Z,64.77
2022-08-11T01:30:02.773Z,65.01
2022-08-11T01:33:06.891Z,65.52
2022-08-11T01:36:24.797Z,65.19
2022-08-11T01:39:18.308Z,65.48
2022-08-11T01:42:50.783Z,65.05
2022-08-11T01:45:49.756Z,65.10
2022-08-11T01:48:41.039Z,64.90
2022-08-11T01:51:40.840Z,64.47
2022-08-11T01:54:42.356Z,64.27
2022-08-11T01:57:34.726Z,64.17
2022-08-11T02:00:24.229Z,64.36
2022-08-11T02:03:22.715Z,64.41
2022-08-11T02:06:56.735Z,64.29
2022-08-11T02:10:22.809Z,63.98
2022-08-11T02:13:37.210Z,63.99
2022-08-11T02:16:43.850Z,64.14
2022-08-11T02:19:42.718Z,64.17
2022-08-11T02:23:40.974Z,64.22
2022-08-11T02:26:26.797Z,63.90
2022-08-11T02:29:31.714Z,63.93
2022-08-11T02:32:44.675Z,64.12
2022-08-11T02:36:04.711Z,64.99
2022-08-11T02:39:02.692Z,65.03
2022-08-11T02:42:32.458Z,65.17
2022-08-11T02:45:33.825Z,64.95
2022-08-11T02:49:00.654Z,65.23
2022-08-11T02:52:00.694Z,65.35
2022-08-11T03:12:57.402Z,67.45
2022-08-11T03:16:43.451Z,67.09
2022-08-11T03:20:08.402Z,66.46
2022-08-11T03:22:59.434Z,66.56
2022-08-11T03:26:10.393Z,65.87
2022-08-11T03:29:24.932Z,65.95
2022-08-11T03:32:26.356Z,65.96
2022-08-11T03:35:10.040Z,65.69
2022-08-11T03:38:22.400Z,65.34
2022-08-11T03:42:03.223Z,65.72
2022-08-11T03:44:50.499Z,66.18
2022-08-11T03:48:16.381Z,65.92
2022-08-11T03:51:21.482Z,65.63
2022-08-11T03:54:17.401Z,65.88
2022-08-11T03:57:19.521Z,66.19
2022-08-11T04:00:26.379Z,65.64
2022-08-11T04:03:48.384Z,65.21
2022-08-11T04:06:44.469Z,64.70
2022-08-11T04:10:01.341Z,63.50
2022-08-11T04:13:06.486Z,63.26
2022-08-11T04:16:11.954Z,63.10
2022-08-11T04:19:23.356Z,62.04
2022-08-11T04:22:29.469Z,60.60
2022-08-11T04:26:01.400Z,60.15
2022-08-11T04:29:23.318Z,60.26
2022-08-11T04:32:28.524Z,59.66
2022-08-11T04:35:50.702Z,60.43
2022-08-11T04:38:58.358Z,60.27
2022-08-11T04:42:31.377Z,61.94
2022-08-11T04:45:45.278Z,62.85
2022-08-11T04:49:33.261Z,63.42
2022-08-11T04:52:54.995Z,64.49
2022-08-11T04:56:11.266Z,65.72
2022-08-11T04:59:34.799Z,65.77
2022-08-11T05:02:36.340Z,65.49
2022-08-11T05:06:07.288Z,65.07
2022-08-11T05:09:17.414Z,63.87
2022-08-11T05:12:26.286Z,63.54
2022-08-11T05:15:32.282Z,62.15
2022-08-11T05:18:51.339Z,59.29
2022-08-11T05:21:57.448Z,56.66
2022-08-11T05:25:02.866Z,57.04
2022-08-11T05:28:36.271Z,56.03
2022-08-11T05:31:38.246Z,51.80
2022-08-11T05:34:51.234Z,52.43
2022-08-11T05:37:34.523Z,52.25
2022-08-11T05:40:51.214Z,51.15
2022-08-11T05:44:21.204Z,48.16
2022-08-11T05:47:27.261Z,50.40
2022-08-11T05:50:38.282Z,49.71
2022-08-11T05:53:47.254Z,47.87
2022-08-11T05:56:35.504Z,50.27
2022-08-11T05:59:21.289Z,52.01
2022-08-11T06:02:08.735Z,52.52
2022-08-11T06:04:56.269Z,53.70
2022-08-11T06:07:48.912Z,53.45
2022-08-11T06:10:47.239Z,52.65
2022-08-11T06:13:28.419Z,53.19
2022-08-11T06:16:16.234Z,53.47
2022-08-11T06:18:57.754Z,51.55
2022-08-11T06:21:48.212Z,50.52
2022-08-11T06:24:36.275Z,50.31
2022-08-11T06:27:23.146Z,49.00
2022-08-11T06:30:13.702Z,49.17
2022-08-11T06:33:05.160Z,48.42
2022-08-11T06:36:03.345Z,47.60
2022-08-11T06:39:05.188Z,47.50
2022-08-11T06:41:59.194Z,46.80
2022-08-11T06:44:54.323Z,46.67
2022-08-11T06:47:42.173Z,46.41
2022-08-11T06:50:46.071Z,44.65
2022-08-11T06:53:41.151Z,45.13
2022-08-11T06:57:06.664Z,44.94
2022-08-11T07:00:13.059Z,43.00
2022-08-11T07:03:08.185Z,42.80
2022-08-11T07:06:01.027Z,42.08
2022-08-11T07:09:44.206Z,41.50
2022-08-11T07:13:52.215Z,41.49
2022-08-11T07:17:28.961Z,40.67
2022-08-11T07:22:00.485Z,40.99
2022-08-11T07:25:09.113Z,40.57
2022-08-11T07:28:17.151Z,40.37
2022-08-11T07:31:11.131Z,39.21
2022-08-11T07:34:19.180Z,38.51
2022-08-11T07:37:10.212Z,38.71
2022-08-11T07:39:52.201Z,39.02
2022-08-11T07:42:36.938Z,38.94
2022-08-11T07:45:43.110Z,38.21
2022-08-11T07:48:42.039Z,38.03
2022-08-11T07:51:52.143Z,39.10
2022-08-11T07:54:39.119Z,37.35
2022-08-11T07:58:14.536Z,37.91
2022-08-11T08:01:22.475Z,37.95
2022-08-11T08:04:34.103Z,37.12
2022-08-11T08:07:39.757Z,38.03
2022-08-11T08:10:45.095Z,38.06
2022-08-11T08:13:57.091Z,37.59
2022-08-11T08:17:03.089Z,36.84
2022-08-11T08:19:44.711Z,36.05
2022-08-11T08:22:48.326Z,35.98
2022-08-11T08:25:29.213Z,35.84
2022-08-11T08:28:25.371Z,36.08
2022-08-11T08:31:14.060Z,33.75
2022-08-11T08:34:02.070Z,33.82
2022-08-11T08:36:50.093Z,34.24
2022-08-11T08:39:40.152Z,32.71
2022-08-11T08:42:33.116Z,25.90
2022-08-11T08:45:25.044Z,23.56
2022-08-11T08:48:25.084Z,22.90
2022-08-11T08:52:01.382Z,23.29
2022-08-11T08:54:47.058Z,22.06
2022-08-11T08:57:39.946Z,23.29
2022-08-11T09:00:23.671Z,25.42
2022-08-11T09:03:38.971Z,24.83
2022-08-11T09:06:11.131Z,24.99
2022-08-11T09:09:01.079Z,23.78
2022-08-11T09:12:03.028Z,21.32
2022-08-11T09:15:07.017Z,21.30
2022-08-11T09:17:56.304Z,20.91
2022-08-11T09:20:44.991Z,20.76
2022-08-11T09:24:07.754Z,20.72
2022-08-11T09:27:11.024Z,19.49
2022-08-11T09:29:51.122Z,18.46
2022-08-11T09:32:40.023Z,20.78
2022-08-11T09:35:28.014Z,19.79
2022-08-11T09:38:36.965Z,20.04
2022-08-11T09:41:19.003Z,20.28
2022-08-11T09:44:33.969Z,17.89
2022-08-11T09:47:22.027Z,19.86
2022-08-11T09:50:10.209Z,17.98
2022-08-11T09:53:16.797Z,20.07
2022-08-11T09:55:53.481Z,19.40
2022-08-11T09:58:43.027Z,21.14
2022-08-11T10:01:36.023Z,19.73
2022-08-11T10:04:48.665Z,20.27
2022-08-11T10:07:34.974Z,19.58
2022-08-11T10:10:23.961Z,20.77
2022-08-11T10:14:06.096Z,19.26
2022-08-11T10:16:35.104Z,19.78
2022-08-11T10:19:16.991Z,24.04
2022-08-11T10:22:16.262Z,26.13
2022-08-11T10:25:21.977Z,26.15
2022-08-11T10:28:18.712Z,27.41
2022-08-11T10:31:43.831Z,27.21
2022-08-11T10:34:35.628Z,26.96
2022-08-11T10:37:25.029Z,26.57
2022-08-11T10:40:25.572Z,27.02
2022-08-11T10:43:57.206Z,26.83
2022-08-11T10:46:42.947Z,26.71
2022-08-11T10:49:24.117Z,27.30
2022-08-11T10:52:29.994Z,27.03
2022-08-11T10:55:28.599Z,27.83
2022-08-11T10:58:35.940Z,27.56
2022-08-11T11:01:24.022Z,27.28
2022-08-11T11:04:18.972Z,27.93
2022-08-11T11:07:21.940Z,29.07
2022-08-11T11:10:06.373Z,27.34
2022-08-11T11:13:16.910Z,27.30
2022-08-11T11:16:15.899Z,27.20
2022-08-11T11:19:03.925Z,26.43
2022-08-11T11:21:44.463Z,25.79
2022-08-11T11:25:05.879Z,25.98
2022-08-11T11:28:07.903Z,26.44
2022-08-11T11:31:05.017Z,27.43
2022-08-11T11:34:12.699Z,26.30
2022-08-11T11:37:08.911Z,26.77
2022-08-11T11:39:50.347Z,28.07
2022-08-11T11:42:38.991Z,30.88
2022-08-11T11:45:22.688Z,31.68
2022-08-11T11:48:12.903Z,30.89
2022-08-11T11:50:59.983Z,32.45
2022-08-11T11:53:41.902Z,32.16
2022-08-11T11:56:32.009Z,31.74
2022-08-11T11:59:32.885Z,32.82
2022-08-11T12:02:16.198Z,32.30
2022-08-11T12:05:02.866Z,32.28
2022-08-11T12:08:10.334Z,31.90
2022-08-11T12:11:22.895Z,31.29
2022-08-11T12:14:19.847Z,32.12
2022-08-11T12:17:07.894Z,31.18
2022-08-11T12:19:54.901Z,31.53
2022-08-11T12:22:55.829Z,32.36
2022-08-11T12:26:39.848Z,31.93
2022-08-11T12:29:29.016Z,32.42
2022-08-11T12:32:13.844Z,32.57
2022-08-11T12:34:57.002Z,32.10
2022-08-11T12:37:49.181Z,31.92
2022-08-11T12:41:12.038Z,32.23
2022-08-11T12:44:19.361Z,30.41
2022-08-11T12:47:02.253Z,30.95
2022-08-11T12:50:22.581Z,31.60
2022-08-11T12:53:14.799Z,31.69
2022-08-11T12:56:14.816Z,32.89
2022-08-11T12:59:21.840Z,33.04
2022-08-11T13:02:20.764Z,33.14
2022-08-11T13:05:17.816Z,33.10
2022-08-11T13:07:59.244Z,32.33
2022-08-11T13:10:58.823Z,32.80
2022-08-11T13:13:55.458Z,32.90
2022-08-11T13:17:02.806Z,32.72
2022-08-11T13:19:48.870Z,32.00
2022-08-11T13:22:37.964Z,32.36
2022-08-11T13:25:27.796Z,32.83
2022-08-11T13:28:07.919Z,32.82
2022-08-11T13:31:15.806Z,32.48
2022-08-11T13:36:58.888Z,32.36
2022-08-11T13:39:41.008Z,32.47
2022-08-11T13:42:28.800Z,31.55
2022-08-11T13:45:08.898Z,32.08
2022-08-11T13:47:56.794Z,32.15
2022-08-11T13:50:58.563Z,33.00
2022-08-11T13:53:45.754Z,33.70
2022-08-11T13:56:29.843Z,33.43
2022-08-11T13:59:16.815Z,32.76
2022-08-11T14:02:22.272Z,33.42
2022-08-11T14:05:21.745Z,33.44
2022-08-11T14:08:38.076Z,33.47
2022-08-11T14:12:21.658Z,32.74
2022-08-11T14:15:08.801Z,33.21
2022-08-11T14:17:57.079Z,33.97
2022-08-11T14:21:07.774Z,34.02
2022-08-11T14:23:57.741Z,33.77
2022-08-11T14:26:48.711Z,33.74
2022-08-11T14:29:34.413Z,33.58
2022-08-11T14:32:29.807Z,33.82
2022-08-11T14:35:17.740Z,33.92
2022-08-11T14:37:57.820Z,32.71
2022-08-11T14:41:03.744Z,33.29
2022-08-11T14:44:12.747Z,33.02
2022-08-11T14:47:24.099Z,33.27
2022-08-11T14:50:10.879Z,34.38
2022-08-11T14:53:11.739Z,33.82
2022-08-11T14:56:17.539Z,34.37
2022-08-11T15:15:21.169Z,34.13
2022-08-11T15:18:04.357Z,33.89
2022-08-11T15:21:09.174Z,33.79
2022-08-11T15:24:21.904Z,33.87
2022-08-11T15:27:28.135Z,33.83
2022-08-11T15:30:34.378Z,34.64
2022-08-11T15:33:43.233Z,34.44
2022-08-11T15:36:43.778Z,34.17
2022-08-11T15:39:37.169Z,34.55
2022-08-11T15:42:36.466Z,35.26
2022-08-11T15:45:42.170Z,35.42
2022-08-11T15:48:39.317Z,35.64
2022-08-11T15:51:47.128Z,35.29
2022-08-11T15:54:38.074Z,35.42
2022-08-11T15:57:59.155Z,35.36
2022-08-11T16:01:04.212Z,34.71
2022-08-11T16:04:18.384Z,35.20
2022-08-11T16:07:24.206Z,34.44
2022-08-11T16:10:22.118Z,34.98
2022-08-11T16:13:20.138Z,34.62
2022-08-11T16:16:15.298Z,34.18
2022-08-11T16:19:08.104Z,34.67
2022-08-11T16:21:52.900Z,34.91
2022-08-11T16:27:06.892Z,34.80
2022-08-11T16:27:49.217Z,34.57
2022-08-11T16:30:38.065Z,35.06
2022-08-11T16:33:49.682Z,35.11
2022-08-11T16:36:58.097Z,35.19
2022-08-11T16:39:40.030Z,35.66
2022-08-11T16:43:04.474Z,36.06
2022-08-11T16:46:13.977Z,36.00
2022-08-11T16:48:57.071Z,36.59
2022-08-11T16:51:37.908Z,36.66
2022-08-11T16:54:27.930Z,36.91
2022-08-11T16:57:45.738Z,36.79
2022-08-11T17:00:32.132Z,37.44
2022-08-11T17:03:46.828Z,37.65
2022-08-11T17:06:53.049Z,37.51
2022-08-11T17:09:54.750Z,38.13
2022-08-11T17:13:03.012Z,38.48
2022-08-11T17:16:15.075Z,38.42
2022-08-11T17:19:15.065Z,39.13
2022-08-11T17:22:15.645Z,39.08
2022-08-11T17:25:05.013Z,39.49
2022-08-11T17:27:55.021Z,39.25
2022-08-11T17:31:01.055Z,39.59
2022-08-11T17:33:59.760Z,40.22
2022-08-11T17:36:51.010Z,40.39
2022-08-11T17:39:32.407Z,40.19
2022-08-11T17:42:38.994Z,40.63
2022-08-11T17:45:47.004Z,40.40
2022-08-11T17:48:27.164Z,41.08
2022-08-11T17:51:19.010Z,41.36
2022-08-11T17:54:24.515Z,41.44
2022-08-11T17:57:32.005Z,41.73
2022-08-11T18:00:13.140Z,41.86
2022-08-11T18:03:21.006Z,41.85
2022-08-11T18:06:03.192Z,42.49
2022-08-11T18:09:09.989Z,42.48
2022-08-11T18:12:12.985Z,42.63
2022-08-11T18:15:20.985Z,43.01
2022-08-11T18:18:19.854Z,43.13
2022-08-11T18:21:25.986Z,43.37
2022-08-11T18:24:35.971Z,43.21
2022-08-11T18:27:37.390Z,43.77
2022-08-11T18:30:43.955Z,43.95
2022-08-11T18:34:07.122Z,44.14
2022-08-11T18:37:29.432Z,44.22
2022-08-11T18:40:48.958Z,44.75
2022-08-11T18:43:55.942Z,44.97
2022-08-11T18:47:01.889Z,44.83
2022-08-11T18:50:21.089Z,44.78
2022-08-11T18:53:35.231Z,45.08
2022-08-11T18:56:39.926Z,45.19
2022-08-11T18:59:46.064Z,45.47
2022-08-11T19:02:53.142Z,45.29
2022-08-11T19:06:35.673Z,45.43
2022-08-11T19:09:25.584Z,45.72
2022-08-11T19:12:35.045Z,45.46
2022-08-11T19:15:48.933Z,45.28
2022-08-11T19:18:56.927Z,45.26
2022-08-11T19:22:02.900Z,45.58
2022-08-11T19:25:12.102Z,45.71
2022-08-11T19:28:19.903Z,46.00
2022-08-11T19:31:25.532Z,45.97
2022-08-11T19:34:24.902Z,46.03
2022-08-11T19:37:32.945Z,45.98
2022-08-11T19:40:34.702Z,46.20
2022-08-11T19:43:42.904Z,46.80
2022-08-11T19:46:45.613Z,46.74
2022-08-11T19:49:52.926Z,46.94
2022-08-11T19:52:52.813Z,46.96
2022-08-11T19:55:58.856Z,47.36
2022-08-11T19:59:06.879Z,47.11
2022-08-11T20:02:13.725Z,47.18
2022-08-11T20:05:19.871Z,47.42
2022-08-11T20:08:25.803Z,47.45
2022-08-11T20:11:25.888Z,47.25
2022-08-11T20:14:40.853Z,47.16
2022-08-11T20:17:47.942Z,47.17
2022-08-11T20:20:49.785Z,47.44
2022-08-11T20:23:55.870Z,47.32
2022-08-11T20:27:02.861Z,47.34
2022-08-11T20:30:02.710Z,47.57
2022-08-11T20:33:09.866Z,47.64
2022-08-11T20:36:09.530Z,47.62
2022-08-11T20:39:15.900Z,47.84
2022-08-11T20:42:16.657Z,47.99
2022-08-11T20:45:24.943Z,47.69
2022-08-11T20:48:30.871Z,47.71
2022-08-11T20:51:29.519Z,47.62
2022-08-11T20:54:44.845Z,47.84
2022-08-11T20:57:58.948Z,47.61
2022-08-11T21:01:01.023Z,47.83
2022-08-11T21:04:06.834Z,47.89
2022-08-11T21:07:15.233Z,48.14
2022-08-11T21:10:26.827Z,48.21
2022-08-11T21:13:42.006Z,48.19
2022-08-11T21:17:00.808Z,48.14
2022-08-11T21:20:35.786Z,48.45
2022-08-11T21:23:41.677Z,48.65
2022-08-11T21:26:42.798Z,48.88
2022-08-11T21:29:47.973Z,49.16
2022-08-11T21:32:55.822Z,49.05
2022-08-11T21:35:56.412Z,48.96
2022-08-11T21:39:02.786Z,49.19
2022-08-11T21:42:02.357Z,49.36
2022-08-11T21:45:07.789Z,49.50
2022-08-11T21:51:11.836Z,49.86
2022-08-11T21:54:18.408Z,49.95
2022-08-11T21:57:17.781Z,50.12
2022-08-11T22:00:25.764Z,50.18
2022-08-11T22:03:24.677Z,50.30
2022-08-11T22:06:30.726Z,50.35
2022-08-11T22:09:29.519Z,50.37
2022-08-11T22:12:37.061Z,50.42
2022-08-11T22:15:50.753Z,50.75
2022-08-11T22:18:52.431Z,50.59
2022-08-11T22:22:04.221Z,50.78
2022-08-11T22:25:15.284Z,50.54
2022-08-11T22:28:21.712Z,50.93
2022-08-11T22:31:27.697Z,51.04
2022-08-11T22:34:27.426Z,50.98
2022-08-11T22:37:32.715Z,51.00
2022-08-11T22:40:39.700Z,51.16
2022-08-11T22:43:38.806Z,51.20
2022-08-11T22:46:43.723Z,51.17
2022-08-11T22:49:58.579Z,51.35
2022-08-11T22:52:59.547Z,51.52
2022-08-11T22:56:04.704Z,51.53
2022-08-11T22:59:11.717Z,51.63
2022-08-11T23:02:20.686Z,51.69
2022-08-11T23:05:26.694Z,51.80
2022-08-11T23:08:26.404Z,51.90
2022-08-11T23:12:02.520Z,52.04
2022-08-11T23:15:01.594Z,52.24
2022-08-11T23:18:00.688Z,52.20
2022-08-11T23:21:07.667Z,52.22
2022-08-11T23:24:12.633Z,52.25
2022-08-11T23:27:19.656Z,52.41
2022-08-11T23:30:22.333Z,52.53
2022-08-11T23:33:28.646Z,52.48
2022-08-11T23:36:36.079Z,52.38
2022-08-11T23:39:54.680Z,52.84
2022-08-11T23:42:53.345Z,52.53
2022-08-11T23:45:57.652Z,52.83
2022-08-11T23:48:57.433Z,52.73
2022-08-11T23:52:06.615Z,52.83
2022-08-11T23:55:11.642Z,52.91
2022-08-11T23:58:18.636Z,52.93
